sensor_id;sensor_type;location;lat;lon;timestamp;temperature;humidity
34147;DHT22;20423;49.448;9.056;2023-02-26T00:01:21;-4.20;99.90
34147;DHT22;20423;49.448;9.056;2023-02-26T00:03:51;-4.20;99.90
34147;DHT22;20423;49.448;9.056;2023-02-26T00:06:18;-4.20;99.90
34147;DHT22;20423;49.448;9.056;2023-02-26T00:08:44;-4.20;99.90
34147;DHT22;20423;49.448;9.056;2023-02-26T00:11:10;-4.10;99.90
34147;DHT22;20423;49.448;9.056;2023-02-26T00:13:37;-4.20;99.90
34147;DHT22;20423;49.448;9.056;2023-02-26T00:16:10;-4.10;99.90
34147;DHT22;20423;49.448;9.056;2023-02-26T00:18:38;-4.00;99.90
34147;DHT22;20423;49.448;9.056;2023-02-26T00:21:04;-4.00;99.90
34147;DHT22;20423;49.448;9.056;2023-02-26T00:23:29;-3.90;99.90
34147;DHT22;20423;49.448;9.056;2023-02-26T00:25:57;-3.90;99.90
34147;DHT22;20423;49.448;9.056;2023-02-26T00:28:22;-3.80;99.90
34147;DHT22;20423;49.448;9.056;2023-02-26T00:30:51;-3.60;99.90
34147;DHT22;20423;49.448;9.056;2023-02-26T00:33:17;-3.60;99.90
34147;DHT22;20423;49.448;9.056;2023-02-26T00:35:43;-3.50;99.90
34147;DHT22;20423;49.448;9.056;2023-02-26T00:38:10;-3.40;99.90
34147;DHT22;20423;49.448;9.056;2023-02-26T00:40:45;-3.30;99.90
34147;DHT22;20423;49.448;9.056;2023-02-26T00:43:17;-3.30;99.90
34147;DHT22;20423;49.448;9.056;2023-02-26T00:46:09;-3.30;99.90
34147;DHT22;20423;49.448;9.056;2023-02-26T00:48:44;-3.40;99.90
34147;DHT22;20423;49.448;9.056;2023-02-26T00:52:02;-3.50;99.90
34147;DHT22;20423;49.448;9.056;2023-02-26T00:54:19;-3.70;99.90
34147;DHT22;20423;49.448;9.056;2023-02-26T00:56:47;-3.70;99.90
34147;DHT22;20423;49.448;9.056;2023-02-26T00:59:14;-3.80;99.90
34147;DHT22;20423;49.448;9.056;2023-02-26T01:01:40;-3.80;99.90
34147;DHT22;20423;49.448;9.056;2023-02-26T01:04:07;-3.80;99.90
34147;DHT22;20423;49.448;9.056;2023-02-26T01:06:34;-3.80;99.90
34147;DHT22;20423;49.448;9.056;2023-02-26T01:11:34;-3.80;99.90
34147;DHT22;20423;49.448;9.056;2023-02-26T01:14:01;-3.90;99.90
34147;DHT22;20423;49.448;9.056;2023-02-26T01:16:27;-3.90;99.90
34147;DHT22;20423;49.448;9.056;2023-02-26T01:19:40;-3.90;99.90
34147;DHT22;20423;49.448;9.056;2023-02-26T01:22:14;-3.90;99.90
34147;DHT22;20423;49.448;9.056;2023-02-26T01:24:41;-4.00;99.90
34147;DHT22;20423;49.448;9.056;2023-02-26T01:27:07;-4.00;99.90
34147;DHT22;20423;49.448;9.056;2023-02-26T01:29:33;-3.90;99.90
34147;DHT22;20423;49.448;9.056;2023-02-26T01:32:12;-3.90;99.90
34147;DHT22;20423;49.448;9.056;2023-02-26T01:42:23;-3.90;99.90
34147;DHT22;20423;49.448;9.056;2023-02-26T01:45:17;-4.00;99.90
34147;DHT22;20423;49.448;9.056;2023-02-26T01:48:05;-4.00;99.90
34147;DHT22;20423;49.448;9.056;2023-02-26T01:50:34;-4.00;99.90
34147;DHT22;20423;49.448;9.056;2023-02-26T01:53:16;-4.10;99.90
34147;DHT22;20423;49.448;9.056;2023-02-26T01:55:42;-4.10;99.90
34147;DHT22;20423;49.448;9.056;2023-02-26T01:58:09;-4.10;99.90
34147;DHT22;20423;49.448;9.056;2023-02-26T02:00:35;-4.20;99.90
34147;DHT22;20423;49.448;9.056;2023-02-26T02:03:01;-4.20;99.90
34147;DHT22;20423;49.448;9.056;2023-02-26T02:05:35;-4.20;99.90
34147;DHT22;20423;49.448;9.056;2023-02-26T02:08:04;-4.20;99.90
34147;DHT22;20423;49.448;9.056;2023-02-26T02:10:29;-4.30;99.90
34147;DHT22;20423;49.448;9.056;2023-02-26T02:13:06;-4.50;99.90
34147;DHT22;20423;49.448;9.056;2023-02-26T02:15:45;-4.70;99.90
34147;DHT22;20423;49.448;9.056;2023-02-26T02:21:43;-4.60;99.90
34147;DHT22;20423;49.448;9.056;2023-02-26T02:24:24;-4.60;99.90
34147;DHT22;20423;49.448;9.056;2023-02-26T02:26:57;-4.60;99.90
34147;DHT22;20423;49.448;9.056;2023-02-26T02:32:46;-4.60;99.90
34147;DHT22;20423;49.448;9.056;2023-02-26T02:35:28;-4.60;99.90
34147;DHT22;20423;49.448;9.056;2023-02-26T02:38:05;-4.60;99.90
34147;DHT22;20423;49.448;9.056;2023-02-26T02:40:40;-4.70;99.90
34147;DHT22;20423;49.448;9.056;2023-02-26T02:43:13;-4.60;99.90
34147;DHT22;20423;49.448;9.056;2023-02-26T02:51:01;-4.70;99.90
34147;DHT22;20423;49.448;9.056;2023-02-26T02:53:52;-4.80;99.90
34147;DHT22;20423;49.448;9.056;2023-02-26T02:56:33;-4.80;99.90
34147;DHT22;20423;49.448;9.056;2023-02-26T02:59:23;-4.80;99.90
34147;DHT22;20423;49.448;9.056;2023-02-26T03:04:39;-4.70;99.90
34147;DHT22;20423;49.448;9.056;2023-02-26T03:07:05;-4.70;99.90
34147;DHT22;20423;49.448;9.056;2023-02-26T03:09:32;-4.70;99.90
34147;DHT22;20423;49.448;9.056;2023-02-26T03:11:57;-4.80;99.90
34147;DHT22;20423;49.448;9.056;2023-02-26T03:14:25;-4.80;99.90
34147;DHT22;20423;49.448;9.056;2023-02-26T03:17:26;-4.80;99.90
34147;DHT22;20423;49.448;9.056;2023-02-26T03:25:34;-4.80;99.90
34147;DHT22;20423;49.448;9.056;2023-02-26T03:28:20;-4.90;99.90
34147;DHT22;20423;49.448;9.056;2023-02-26T03:31:14;-4.90;99.90
34147;DHT22;20423;49.448;9.056;2023-02-26T03:39:51;-4.90;99.90
34147;DHT22;20423;49.448;9.056;2023-02-26T03:45:08;-4.90;99.90
34147;DHT22;20423;49.448;9.056;2023-02-26T03:47:37;-5.00;99.90
34147;DHT22;20423;49.448;9.056;2023-02-26T03:50:11;-5.10;99.90
34147;DHT22;20423;49.448;9.056;2023-02-26T03:52:50;-5.20;99.90
34147;DHT22;20423;49.448;9.056;2023-02-26T03:58:55;-5.50;99.90
34147;DHT22;20423;49.448;9.056;2023-02-26T04:01:53;-5.50;99.90
34147;DHT22;20423;49.448;9.056;2023-02-26T04:04:33;-5.60;99.90
34147;DHT22;20423;49.448;9.056;2023-02-26T04:07:00;-5.60;99.90
34147;DHT22;20423;49.448;9.056;2023-02-26T04:09:27;-5.70;99.90
34147;DHT22;20423;49.448;9.056;2023-02-26T04:11:55;-5.80;99.90
34147;DHT22;20423;49.448;9.056;2023-02-26T04:14:21;-5.70;99.90
34147;DHT22;20423;49.448;9.056;2023-02-26T04:16:47;-5.70;99.90
34147;DHT22;20423;49.448;9.056;2023-02-26T04:19:13;-5.70;99.90
34147;DHT22;20423;49.448;9.056;2023-02-26T04:21:40;-5.60;99.90
34147;DHT22;20423;49.448;9.056;2023-02-26T04:24:06;-5.60;99.90
34147;DHT22;20423;49.448;9.056;2023-02-26T04:26:33;-5.60;99.90
34147;DHT22;20423;49.448;9.056;2023-02-26T04:29:00;-5.60;99.90
34147;DHT22;20423;49.448;9.056;2023-02-26T04:31:25;-5.70;99.90
34147;DHT22;20423;49.448;9.056;2023-02-26T04:33:51;-5.70;99.90
34147;DHT22;20423;49.448;9.056;2023-02-26T04:36:17;-5.70;99.90
34147;DHT22;20423;49.448;9.056;2023-02-26T04:38:43;-5.70;99.90
34147;DHT22;20423;49.448;9.056;2023-02-26T04:41:09;-5.60;99.90
34147;DHT22;20423;49.448;9.056;2023-02-26T04:43:35;-5.40;99.90
34147;DHT22;20423;49.448;9.056;2023-02-26T04:46:24;-5.20;99.90
34147;DHT22;20423;49.448;9.056;2023-02-26T04:48:50;-5.00;99.90
34147;DHT22;20423;49.448;9.056;2023-02-26T04:51:16;-5.00;99.90
34147;DHT22;20423;49.448;9.056;2023-02-26T04:53:42;-4.90;99.90
34147;DHT22;20423;49.448;9.056;2023-02-26T04:56:08;-4.80;99.90
34147;DHT22;20423;49.448;9.056;2023-02-26T04:58:34;-4.70;99.90
34147;DHT22;20423;49.448;9.056;2023-02-26T05:01:06;-4.60;99.90
34147;DHT22;20423;49.448;9.056;2023-02-26T05:03:32;-4.60;99.90
34147;DHT22;20423;49.448;9.056;2023-02-26T05:05:58;-4.70;99.90
34147;DHT22;20423;49.448;9.056;2023-02-26T05:08:24;-4.70;99.90
34147;DHT22;20423;49.448;9.056;2023-02-26T05:10:51;-4.60;99.90
34147;DHT22;20423;49.448;9.056;2023-02-26T05:13:18;-4.70;99.90
34147;DHT22;20423;49.448;9.056;2023-02-26T05:15:43;-4.70;99.90
34147;DHT22;20423;49.448;9.056;2023-02-26T05:18:10;-4.70;99.90
34147;DHT22;20423;49.448;9.056;2023-02-26T05:20:36;-4.80;99.90
34147;DHT22;20423;49.448;9.056;2023-02-26T05:23:03;-4.70;99.90
34147;DHT22;20423;49.448;9.056;2023-02-26T05:25:29;-4.80;99.90
34147;DHT22;20423;49.448;9.056;2023-02-26T05:27:55;-4.90;99.90
34147;DHT22;20423;49.448;9.056;2023-02-26T05:30:22;-4.90;99.90
34147;DHT22;20423;49.448;9.056;2023-02-26T05:32:48;-5.00;99.90
34147;DHT22;20423;49.448;9.056;2023-02-26T05:35:13;-4.90;99.90
34147;DHT22;20423;49.448;9.056;2023-02-26T05:37:39;-5.00;99.90
34147;DHT22;20423;49.448;9.056;2023-02-26T05:40:06;-5.00;99.90
34147;DHT22;20423;49.448;9.056;2023-02-26T05:42:36;-5.00;99.90
34147;DHT22;20423;49.448;9.056;2023-02-26T05:45:03;-4.90;99.90
34147;DHT22;20423;49.448;9.056;2023-02-26T05:47:33;-4.90;99.90
34147;DHT22;20423;49.448;9.056;2023-02-26T05:49:59;-5.00;99.90
34147;DHT22;20423;49.448;9.056;2023-02-26T05:52:25;-5.00;99.90
34147;DHT22;20423;49.448;9.056;2023-02-26T05:54:51;-4.90;99.90
34147;DHT22;20423;49.448;9.056;2023-02-26T05:57:17;-4.90;99.90
34147;DHT22;20423;49.448;9.056;2023-02-26T05:59:42;-4.80;99.90
34147;DHT22;20423;49.448;9.056;2023-02-26T06:02:08;-4.80;99.90
34147;DHT22;20423;49.448;9.056;2023-02-26T06:04:34;-4.70;99.90
34147;DHT22;20423;49.448;9.056;2023-02-26T06:07:00;-4.70;99.90
34147;DHT22;20423;49.448;9.056;2023-02-26T06:09:26;-4.80;99.90
34147;DHT22;20423;49.448;9.056;2023-02-26T06:11:51;-4.90;99.90
34147;DHT22;20423;49.448;9.056;2023-02-26T06:14:17;-4.80;99.90
34147;DHT22;20423;49.448;9.056;2023-02-26T06:16:43;-4.80;99.90
34147;DHT22;20423;49.448;9.056;2023-02-26T06:19:08;-4.80;99.90
34147;DHT22;20423;49.448;9.056;2023-02-26T06:21:34;-4.90;99.90
34147;DHT22;20423;49.448;9.056;2023-02-26T06:24:00;-4.90;99.90
34147;DHT22;20423;49.448;9.056;2023-02-26T06:26:26;-4.80;99.90
34147;DHT22;20423;49.448;9.056;2023-02-26T06:28:51;-4.90;99.90
34147;DHT22;20423;49.448;9.056;2023-02-26T06:31:17;-4.90;99.90
34147;DHT22;20423;49.448;9.056;2023-02-26T06:33:43;-4.80;99.90
34147;DHT22;20423;49.448;9.056;2023-02-26T06:36:09;-4.70;99.90
34147;DHT22;20423;49.448;9.056;2023-02-26T06:38:34;-4.70;99.90
34147;DHT22;20423;49.448;9.056;2023-02-26T06:41:00;-4.70;99.90
34147;DHT22;20423;49.448;9.056;2023-02-26T06:43:38;-4.60;99.90
34147;DHT22;20423;49.448;9.056;2023-02-26T06:46:04;-4.60;99.90
34147;DHT22;20423;49.448;9.056;2023-02-26T06:48:30;-4.60;99.90
34147;DHT22;20423;49.448;9.056;2023-02-26T06:50:56;-4.60;99.90
34147;DHT22;20423;49.448;9.056;2023-02-26T06:53:22;-4.60;99.90
34147;DHT22;20423;49.448;9.056;2023-02-26T06:55:50;-4.60;99.90
34147;DHT22;20423;49.448;9.056;2023-02-26T06:58:16;-4.60;99.90
34147;DHT22;20423;49.448;9.056;2023-02-26T07:00:42;-4.60;99.90
34147;DHT22;20423;49.448;9.056;2023-02-26T07:03:12;-4.60;99.90
34147;DHT22;20423;49.448;9.056;2023-02-26T07:05:39;-4.70;99.90
34147;DHT22;20423;49.448;9.056;2023-02-26T07:08:05;-4.70;99.90
34147;DHT22;20423;49.448;9.056;2023-02-26T07:10:34;-4.60;99.90
34147;DHT22;20423;49.448;9.056;2023-02-26T07:13:01;-4.60;99.90
34147;DHT22;20423;49.448;9.056;2023-02-26T07:15:27;-4.40;99.90
34147;DHT22;20423;49.448;9.056;2023-02-26T07:17:53;-4.30;99.90
34147;DHT22;20423;49.448;9.056;2023-02-26T07:20:19;-4.10;99.90
34147;DHT22;20423;49.448;9.056;2023-02-26T07:22:45;-4.00;99.90
34147;DHT22;20423;49.448;9.056;2023-02-26T07:25:11;-3.80;99.90
34147;DHT22;20423;49.448;9.056;2023-02-26T07:27:37;-3.60;99.90
34147;DHT22;20423;49.448;9.056;2023-02-26T07:30:04;-3.50;99.90
34147;DHT22;20423;49.448;9.056;2023-02-26T07:32:30;-3.40;99.90
34147;DHT22;20423;49.448;9.056;2023-02-26T07:34:56;-3.40;99.90
34147;DHT22;20423;49.448;9.056;2023-02-26T07:37:22;-3.30;99.90
34147;DHT22;20423;49.448;9.056;2023-02-26T07:39:48;-3.30;99.90
34147;DHT22;20423;49.448;9.056;2023-02-26T07:42:14;-3.20;99.90
34147;DHT22;20423;49.448;9.056;2023-02-26T07:44:41;-3.20;99.90
34147;DHT22;20423;49.448;9.056;2023-02-26T07:47:07;-3.10;99.90
34147;DHT22;20423;49.448;9.056;2023-02-26T07:49:33;-3.10;99.90
34147;DHT22;20423;49.448;9.056;2023-02-26T07:51:59;-3.00;99.90
34147;DHT22;20423;49.448;9.056;2023-02-26T07:54:25;-2.80;99.90
34147;DHT22;20423;49.448;9.056;2023-02-26T07:56:51;-2.90;99.90
34147;DHT22;20423;49.448;9.056;2023-02-26T07:59:17;-2.90;99.90
34147;DHT22;20423;49.448;9.056;2023-02-26T08:01:42;-2.80;99.90
34147;DHT22;20423;49.448;9.056;2023-02-26T08:04:08;-2.70;99.90
34147;DHT22;20423;49.448;9.056;2023-02-26T08:06:34;-2.60;99.90
34147;DHT22;20423;49.448;9.056;2023-02-26T08:09:01;-2.60;99.90
34147;DHT22;20423;49.448;9.056;2023-02-26T08:11:27;-2.80;99.90
34147;DHT22;20423;49.448;9.056;2023-02-26T08:13:52;-2.80;99.90
34147;DHT22;20423;49.448;9.056;2023-02-26T08:16:19;-2.70;99.90
34147;DHT22;20423;49.448;9.056;2023-02-26T08:18:45;-2.50;99.90
34147;DHT22;20423;49.448;9.056;2023-02-26T08:21:10;-2.30;99.90
34147;DHT22;20423;49.448;9.056;2023-02-26T08:23:37;-2.20;99.90
34147;DHT22;20423;49.448;9.056;2023-02-26T08:26:07;-2.10;99.90
34147;DHT22;20423;49.448;9.056;2023-02-26T08:28:33;-2.00;99.90
34147;DHT22;20423;49.448;9.056;2023-02-26T08:30:59;-2.00;99.90
34147;DHT22;20423;49.448;9.056;2023-02-26T08:33:26;-2.10;99.90
34147;DHT22;20423;49.448;9.056;2023-02-26T08:35:51;-2.10;99.90
34147;DHT22;20423;49.448;9.056;2023-02-26T08:38:19;-2.20;99.90
34147;DHT22;20423;49.448;9.056;2023-02-26T08:40:47;-2.20;99.90
34147;DHT22;20423;49.448;9.056;2023-02-26T08:43:13;-2.10;99.90
34147;DHT22;20423;49.448;9.056;2023-02-26T08:45:39;-1.80;99.90
34147;DHT22;20423;49.448;9.056;2023-02-26T08:48:05;-1.50;99.90
34147;DHT22;20423;49.448;9.056;2023-02-26T08:50:30;-1.50;99.90
34147;DHT22;20423;49.448;9.056;2023-02-26T08:52:56;-1.50;99.90
34147;DHT22;20423;49.448;9.056;2023-02-26T08:55:23;-1.60;99.90
34147;DHT22;20423;49.448;9.056;2023-02-26T08:57:49;-1.60;99.90
34147;DHT22;20423;49.448;9.056;2023-02-26T09:00:15;-1.50;99.90
34147;DHT22;20423;49.448;9.056;2023-02-26T09:02:41;-1.40;99.90
34147;DHT22;20423;49.448;9.056;2023-02-26T09:05:07;-1.40;99.90
34147;DHT22;20423;49.448;9.056;2023-02-26T09:07:33;-1.20;99.90
34147;DHT22;20423;49.448;9.056;2023-02-26T09:09:59;-1.00;99.90
34147;DHT22;20423;49.448;9.056;2023-02-26T09:12:25;-0.80;99.90
34147;DHT22;20423;49.448;9.056;2023-02-26T09:14:50;-0.70;99.90
34147;DHT22;20423;49.448;9.056;2023-02-26T09:17:16;-0.80;99.90
34147;DHT22;20423;49.448;9.056;2023-02-26T09:19:45;-0.60;99.90
34147;DHT22;20423;49.448;9.056;2023-02-26T09:22:14;-0.40;99.90
34147;DHT22;20423;49.448;9.056;2023-02-26T09:24:41;-0.50;99.90
34147;DHT22;20423;49.448;9.056;2023-02-26T09:27:06;-0.70;99.90
34147;DHT22;20423;49.448;9.056;2023-02-26T09:29:32;-0.80;99.90
34147;DHT22;20423;49.448;9.056;2023-02-26T09:31:58;-0.70;99.90
34147;DHT22;20423;49.448;9.056;2023-02-26T09:34:23;-0.70;99.90
34147;DHT22;20423;49.448;9.056;2023-02-26T09:36:49;-0.70;99.90
34147;DHT22;20423;49.448;9.056;2023-02-26T09:39:15;-0.70;99.90
34147;DHT22;20423;49.448;9.056;2023-02-26T09:41:46;-0.30;99.90
34147;DHT22;20423;49.448;9.056;2023-02-26T09:44:30;-0.30;99.90
34147;DHT22;20423;49.448;9.056;2023-02-26T09:47:17;-0.40;99.90
34147;DHT22;20423;49.448;9.056;2023-02-26T09:49:49;-0.30;99.90
34147;DHT22;20423;49.448;9.056;2023-02-26T09:54:59;0.30;99.90
34147;DHT22;20423;49.448;9.056;2023-02-26T09:57:33;0.50;99.90
34147;DHT22;20423;49.448;9.056;2023-02-26T10:00:00;0.40;99.90
34147;DHT22;20423;49.448;9.056;2023-02-26T10:02:39;0.30;99.90
34147;DHT22;20423;49.448;9.056;2023-02-26T10:05:23;0.30;99.90
34147;DHT22;20423;49.448;9.056;2023-02-26T10:08:01;0.30;99.90
34147;DHT22;20423;49.448;9.056;2023-02-26T10:10:32;0.50;99.90
34147;DHT22;20423;49.448;9.056;2023-02-26T10:12:59;0.50;99.90
34147;DHT22;20423;49.448;9.056;2023-02-26T10:15:38;0.50;99.90
34147;DHT22;20423;49.448;9.056;2023-02-26T10:18:35;0.40;99.90
34147;DHT22;20423;49.448;9.056;2023-02-26T10:21:21;0.10;99.90
34147;DHT22;20423;49.448;9.056;2023-02-26T10:23:49;0.00;99.90
34147;DHT22;20423;49.448;9.056;2023-02-26T10:34:53;0.20;99.90
34147;DHT22;20423;49.448;9.056;2023-02-26T10:42:39;0.80;99.90
34147;DHT22;20423;49.448;9.056;2023-02-26T10:45:23;1.40;99.90
34147;DHT22;20423;49.448;9.056;2023-02-26T10:48:22;1.70;99.90
34147;DHT22;20423;49.448;9.056;2023-02-26T10:50:56;1.50;99.90
34147;DHT22;20423;49.448;9.056;2023-02-26T10:53:23;1.30;99.90
34147;DHT22;20423;49.448;9.056;2023-02-26T10:55:50;1.00;99.90
34147;DHT22;20423;49.448;9.056;2023-02-26T10:58:21;1.10;99.90
34147;DHT22;20423;49.448;9.056;2023-02-26T11:00:50;0.80;99.90
34147;DHT22;20423;49.448;9.056;2023-02-26T11:03:21;1.00;99.90
34147;DHT22;20423;49.448;9.056;2023-02-26T11:05:47;1.20;99.90
34147;DHT22;20423;49.448;9.056;2023-02-26T11:08:24;1.10;99.90
34147;DHT22;20423;49.448;9.056;2023-02-26T11:10:55;1.00;99.90
34147;DHT22;20423;49.448;9.056;2023-02-26T11:13:24;1.10;99.90
34147;DHT22;20423;49.448;9.056;2023-02-26T11:15:53;1.40;99.90
34147;DHT22;20423;49.448;9.056;2023-02-26T11:18:24;1.30;99.90
34147;DHT22;20423;49.448;9.056;2023-02-26T11:20:52;1.10;99.90
34147;DHT22;20423;49.448;9.056;2023-02-26T11:23:21;1.10;99.90
34147;DHT22;20423;49.448;9.056;2023-02-26T11:26:05;1.10;99.90
34147;DHT22;20423;49.448;9.056;2023-02-26T11:28:36;0.80;99.90
34147;DHT22;20423;49.448;9.056;2023-02-26T11:31:07;0.70;99.90
34147;DHT22;20423;49.448;9.056;2023-02-26T11:33:43;0.50;99.90
34147;DHT22;20423;49.448;9.056;2023-02-26T11:36:18;0.60;99.90
34147;DHT22;20423;49.448;9.056;2023-02-26T11:38:55;0.60;99.90
34147;DHT22;20423;49.448;9.056;2023-02-26T11:41:22;0.60;99.90
34147;DHT22;20423;49.448;9.056;2023-02-26T11:46:24;0.70;99.90
34147;DHT22;20423;49.448;9.056;2023-02-26T11:48:52;0.90;99.90
34147;DHT22;20423;49.448;9.056;2023-02-26T11:51:24;1.00;99.90
34147;DHT22;20423;49.448;9.056;2023-02-26T11:53:53;1.10;99.90
34147;DHT22;20423;49.448;9.056;2023-02-26T11:56:30;1.00;99.90
34147;DHT22;20423;49.448;9.056;2023-02-26T11:59:04;1.10;99.90
34147;DHT22;20423;49.448;9.056;2023-02-26T12:01:35;1.00;99.90
34147;DHT22;20423;49.448;9.056;2023-02-26T12:04:02;1.00;99.90
34147;DHT22;20423;49.448;9.056;2023-02-26T12:06:28;0.90;99.90
34147;DHT22;20423;49.448;9.056;2023-02-26T12:08:55;1.00;99.90
34147;DHT22;20423;49.448;9.056;2023-02-26T12:11:27;0.80;99.90
34147;DHT22;20423;49.448;9.056;2023-02-26T12:19:29;0.40;99.90
34147;DHT22;20423;49.448;9.056;2023-02-26T12:24:51;0.30;99.90
34147;DHT22;20423;49.448;9.056;2023-02-26T12:35:58;1.20;99.90
34147;DHT22;20423;49.448;9.056;2023-02-26T12:47:24;1.50;99.90
34147;DHT22;20423;49.448;9.056;2023-02-26T13:06:50;1.70;99.90
34147;DHT22;20423;49.448;9.056;2023-02-26T13:17:42;2.10;99.90
34147;DHT22;20423;49.448;9.056;2023-02-26T13:20:23;2.00;99.90
34147;DHT22;20423;49.448;9.056;2023-02-26T13:23:13;1.50;99.90
34147;DHT22;20423;49.448;9.056;2023-02-26T13:25:53;1.80;99.90
34147;DHT22;20423;49.448;9.056;2023-02-26T13:31:51;1.70;99.90
34147;DHT22;20423;49.448;9.056;2023-02-26T13:34:00;1.60;99.90
34147;DHT22;20423;49.448;9.056;2023-02-26T13:36:28;1.40;99.90
34147;DHT22;20423;49.448;9.056;2023-02-26T13:45:28;1.40;99.90
34147;DHT22;20423;49.448;9.056;2023-02-26T13:51:14;1.30;99.90
34147;DHT22;20423;49.448;9.056;2023-02-26T13:53:51;1.00;99.90
34147;DHT22;20423;49.448;9.056;2023-02-26T13:56:23;1.10;99.90
34147;DHT22;20423;49.448;9.056;2023-02-26T14:01:52;1.00;99.90
34147;DHT22;20423;49.448;9.056;2023-02-26T14:11:58;1.50;99.90
34147;DHT22;20423;49.448;9.056;2023-02-26T14:20:26;1.00;99.90
34147;DHT22;20423;49.448;9.056;2023-02-26T14:24:57;0.50;99.90
34147;DHT22;20423;49.448;9.056;2023-02-26T14:32:29;0.40;99.90
34147;DHT22;20423;49.448;9.056;2023-02-26T14:35:18;0.40;99.90
34147;DHT22;20423;49.448;9.056;2023-02-26T14:37:47;0.40;99.90
34147;DHT22;20423;49.448;9.056;2023-02-26T14:40:19;0.50;99.90
34147;DHT22;20423;49.448;9.056;2023-02-26T14:42:55;0.60;99.90
34147;DHT22;20423;49.448;9.056;2023-02-26T14:45:37;0.60;99.90
34147;DHT22;20423;49.448;9.056;2023-02-26T14:48:14;0.50;99.90
34147;DHT22;20423;49.448;9.056;2023-02-26T14:57:28;0.30;99.90
34147;DHT22;20423;49.448;9.056;2023-02-26T15:00:31;0.30;99.90
34147;DHT22;20423;49.448;9.056;2023-02-26T15:20:09;0.30;99.90
34147;DHT22;20423;49.448;9.056;2023-02-26T15:25:31;0.30;99.90
34147;DHT22;20423;49.448;9.056;2023-02-26T15:27:59;0.40;99.90
34147;DHT22;20423;49.448;9.056;2023-02-26T15:30:26;0.30;99.90
34147;DHT22;20423;49.448;9.056;2023-02-26T15:32:58;0.10;99.90
34147;DHT22;20423;49.448;9.056;2023-02-26T15:35:27;-0.10;99.90
34147;DHT22;20423;49.448;9.056;2023-02-26T15:37:55;-0.20;99.90
34147;DHT22;20423;49.448;9.056;2023-02-26T15:40:27;-0.30;99.90
34147;DHT22;20423;49.448;9.056;2023-02-26T15:42:54;-0.50;99.90
34147;DHT22;20423;49.448;9.056;2023-02-26T15:45:27;-0.50;99.90
34147;DHT22;20423;49.448;9.056;2023-02-26T15:47:59;-0.50;99.90
34147;DHT22;20423;49.448;9.056;2023-02-26T15:50:33;-0.30;99.90
34147;DHT22;20423;49.448;9.056;2023-02-26T15:53:01;-0.30;99.90
34147;DHT22;20423;49.448;9.056;2023-02-26T15:55:33;-0.30;99.90
34147;DHT22;20423;49.448;9.056;2023-02-26T15:58:04;-0.20;99.90
34147;DHT22;20423;49.448;9.056;2023-02-26T16:00:37;-0.20;99.90
34147;DHT22;20423;49.448;9.056;2023-02-26T16:03:03;-0.20;99.90
34147;DHT22;20423;49.448;9.056;2023-02-26T16:05:41;-0.20;99.90
34147;DHT22;20423;49.448;9.056;2023-02-26T16:08:36;-0.20;99.90
34147;DHT22;20423;49.448;9.056;2023-02-26T16:12:07;-0.30;99.90
34147;DHT22;20423;49.448;9.056;2023-02-26T16:15:06;-0.40;99.90
34147;DHT22;20423;49.448;9.056;2023-02-26T16:17:37;-0.60;99.90
34147;DHT22;20423;49.448;9.056;2023-02-26T16:20:20;-0.70;99.90
34147;DHT22;20423;49.448;9.056;2023-02-26T16:22:49;-0.60;99.90
34147;DHT22;20423;49.448;9.056;2023-02-26T16:25:36;-0.60;99.90
34147;DHT22;20423;49.448;9.056;2023-02-26T16:38:45;-0.60;99.90
34147;DHT22;20423;49.448;9.056;2023-02-26T16:50:58;-0.90;99.90
34147;DHT22;20423;49.448;9.056;2023-02-26T16:53:42;-1.00;99.90
34147;DHT22;20423;49.448;9.056;2023-02-26T16:56:16;-1.00;99.90
34147;DHT22;20423;49.448;9.056;2023-02-26T16:58:56;-1.10;99.90
34147;DHT22;20423;49.448;9.056;2023-02-26T17:01:26;-1.20;99.90
34147;DHT22;20423;49.448;9.056;2023-02-26T17:03:59;-1.30;99.90
34147;DHT22;20423;49.448;9.056;2023-02-26T17:06:27;-1.20;99.90
34147;DHT22;20423;49.448;9.056;2023-02-26T17:08:59;-1.30;99.90
34147;DHT22;20423;49.448;9.056;2023-02-26T17:14:21;-1.40;99.90
34147;DHT22;20423;49.448;9.056;2023-02-26T17:16:48;-1.50;99.90
34147;DHT22;20423;49.448;9.056;2023-02-26T17:19:17;-1.60;99.90
34147;DHT22;20423;49.448;9.056;2023-02-26T17:21:52;-1.60;99.90
34147;DHT22;20423;49.448;9.056;2023-02-26T17:24:38;-1.60;99.90
34147;DHT22;20423;49.448;9.056;2023-02-26T17:27:26;-1.60;99.90
34147;DHT22;20423;49.448;9.056;2023-02-26T17:29:53;-1.80;99.90
34147;DHT22;20423;49.448;9.056;2023-02-26T17:32:21;-1.90;99.90
34147;DHT22;20423;49.448;9.056;2023-02-26T17:34:48;-1.90;99.90
34147;DHT22;20423;49.448;9.056;2023-02-26T17:37:14;-1.90;99.90
34147;DHT22;20423;49.448;9.056;2023-02-26T17:39:41;-1.90;99.90
34147;DHT22;20423;49.448;9.056;2023-02-26T17:42:18;-1.90;99.90
34147;DHT22;20423;49.448;9.056;2023-02-26T17:44:52;-1.90;99.90
34147;DHT22;20423;49.448;9.056;2023-02-26T17:47:23;-2.00;99.90
34147;DHT22;20423;49.448;9.056;2023-02-26T17:49:50;-1.90;99.90
34147;DHT22;20423;49.448;9.056;2023-02-26T17:52:16;-2.00;99.90
34147;DHT22;20423;49.448;9.056;2023-02-26T17:54:42;-2.00;99.90
34147;DHT22;20423;49.448;9.056;2023-02-26T17:57:14;-2.10;99.90
34147;DHT22;20423;49.448;9.056;2023-02-26T17:59:40;-2.10;99.90
34147;DHT22;20423;49.448;9.056;2023-02-26T18:02:15;-2.10;99.90
34147;DHT22;20423;49.448;9.056;2023-02-26T18:04:41;-2.10;99.90
34147;DHT22;20423;49.448;9.056;2023-02-26T18:07:09;-2.10;99.90
34147;DHT22;20423;49.448;9.056;2023-02-26T18:09:42;-2.20;99.90
34147;DHT22;20423;49.448;9.056;2023-02-26T18:12:15;-2.30;99.90
34147;DHT22;20423;49.448;9.056;2023-02-26T18:14:41;-2.30;99.90
34147;DHT22;20423;49.448;9.056;2023-02-26T18:17:22;-2.40;99.90
34147;DHT22;20423;49.448;9.056;2023-02-26T18:19:49;-2.60;99.90
34147;DHT22;20423;49.448;9.056;2023-02-26T18:22:16;-2.60;99.90
34147;DHT22;20423;49.448;9.056;2023-02-26T18:24:42;-2.50;99.90
34147;DHT22;20423;49.448;9.056;2023-02-26T18:27:15;-2.50;99.90
34147;DHT22;20423;49.448;9.056;2023-02-26T18:29:41;-2.60;99.90
34147;DHT22;20423;49.448;9.056;2023-02-26T18:32:15;-2.50;99.90
34147;DHT22;20423;49.448;9.056;2023-02-26T18:34:42;-2.60;99.90
34147;DHT22;20423;49.448;9.056;2023-02-26T18:37:13;-2.70;99.90
34147;DHT22;20423;49.448;9.056;2023-02-26T18:39:39;-2.70;99.90
34147;DHT22;20423;49.448;9.056;2023-02-26T18:42:23;-2.70;99.90
34147;DHT22;20423;49.448;9.056;2023-02-26T18:44:49;-2.70;99.90
34147;DHT22;20423;49.448;9.056;2023-02-26T18:47:16;-2.70;99.90
34147;DHT22;20423;49.448;9.056;2023-02-26T18:49:43;-2.60;99.90
34147;DHT22;20423;49.448;9.056;2023-02-26T18:52:11;-2.70;99.90
34147;DHT22;20423;49.448;9.056;2023-02-26T18:54:41;-2.80;99.90
34147;DHT22;20423;49.448;9.056;2023-02-26T18:57:08;-2.80;99.90
34147;DHT22;20423;49.448;9.056;2023-02-26T18:59:34;-2.80;99.90
34147;DHT22;20423;49.448;9.056;2023-02-26T19:02:01;-2.70;99.90
34147;DHT22;20423;49.448;9.056;2023-02-26T19:04:27;-2.70;99.90
34147;DHT22;20423;49.448;9.056;2023-02-26T19:06:53;-2.70;99.90
34147;DHT22;20423;49.448;9.056;2023-02-26T19:09:18;-2.70;99.90
34147;DHT22;20423;49.448;9.056;2023-02-26T19:11:44;-2.80;99.90
34147;DHT22;20423;49.448;9.056;2023-02-26T19:14:10;-2.90;99.90
34147;DHT22;20423;49.448;9.056;2023-02-26T19:16:36;-2.80;99.90